Time;durP1;ratioP1;P1;durP2;ratioP2;P2;SDS_P1;SDS_P2;PMS_P1;PMS_P2;Temp;Humidity;BMP_temperature;BMP_pressure;BME280_temperature;BME280_humidity;BME280_pressure;Samples;Min_cycle;Max_cycle;Signal;HPM_P1;HPM_P2
2021/11/09 00:00:23;;;;;;;47.60;26.00;;;;;;;2.55;100.00;102410.16;5065149;28;20032;-62
2021/11/09 00:02:49;;;;;;;47.35;26.75;;;;;;;2.54;100.00;102410.06;5066421;28;20110;-62
2021/11/09 00:05:19;;;;;;;50.15;27.95;;;;;;;2.64;100.00;102411.56;5064589;28;20463;-63
2021/11/09 00:07:57;;;;;;;56.97;29.50;;;;;;;2.59;100.00;102414.78;5065731;28;20029;-63
2021/11/09 00:10:24;;;;;;;48.95;25.85;;;;;;;2.57;100.00;102415.50;5063429;28;20499;-62
2021/11/09 00:12:53;;;;;;;53.67;26.05;;;;;;;2.62;100.00;102411.44;5066503;28;20033;-63
2021/11/09 00:15:22;;;;;;;52.28;29.33;;;;;;;2.68;100.00;102413.53;5064027;28;20017;-63
2021/11/09 00:17:50;;;;;;;54.17;29.02;;;;;;;2.73;100.00;102414.72;5066352;28;20032;-62
2021/11/09 00:20:18;;;;;;;47.20;26.40;;;;;;;2.66;100.00;102415.16;5064748;28;20048;-63
2021/11/09 00:22:43;;;;;;;51.15;28.25;;;;;;;2.73;100.00;102402.56;5065406;28;20029;-62
2021/11/09 00:25:10;;;;;;;58.00;25.88;;;;;;;2.66;100.00;102407.31;5065018;28;20407;-63
2021/11/09 00:27:36;;;;;;;47.85;27.52;;;;;;;2.69;100.00;102410.13;5064325;28;20029;-62
2021/11/09 00:30:03;;;;;;;45.72;25.83;;;;;;;2.62;100.00;102403.59;5066040;28;20360;-62
2021/11/09 00:32:28;;;;;;;48.75;27.40;;;;;;;2.68;100.00;102408.31;5061823;28;20476;-65
2021/11/09 00:34:55;;;;;;;59.33;29.90;;;;;;;2.63;100.00;102409.75;5066457;28;20031;-62
2021/11/09 00:37:20;;;;;;;41.58;25.58;;;;;;;2.56;100.00;102411.06;5063594;28;20112;-62
2021/11/09 00:39:46;;;;;;;50.38;28.30;;;;;;;2.58;100.00;102425.13;5065223;28;20109;-62
2021/11/09 00:42:13;;;;;;;54.38;30.27;;;;;;;2.59;100.00;102429.53;5064729;28;20028;-63
2021/11/09 00:44:38;;;;;;;46.13;26.63;;;;;;;2.48;100.00;102425.38;5064208;28;20021;-63
2021/11/09 00:47:04;;;;;;;59.22;29.98;;;;;;;2.45;100.00;102423.47;5065554;28;20036;-62
2021/11/09 00:49:29;;;;;;;56.22;30.38;;;;;;;2.49;100.00;102427.16;5061795;28;20021;-62
2021/11/09 00:51:55;;;;;;;47.63;27.00;;;;;;;2.40;100.00;102425.78;5066132;28;20424;-65
2021/11/09 00:54:21;;;;;;;55.60;30.63;;;;;;;2.51;100.00;102425.56;5063309;28;20054;-62
2021/11/09 00:56:46;;;;;;;55.30;30.98;;;;;;;2.51;100.00;102418.63;5064929;28;20036;-64
2021/11/09 00:59:12;;;;;;;58.78;30.70;;;;;;;2.59;100.00;102419.09;5064250;28;20039;-63
2021/11/09 01:01:38;;;;;;;53.47;30.50;;;;;;;2.50;100.00;102424.63;5063860;28;20480;-66
2021/11/09 01:04:04;;;;;;;56.65;32.40;;;;;;;2.49;100.00;102417.63;5065299;28;20025;-78
2021/11/09 01:06:31;;;;;;;58.00;32.35;;;;;;;2.54;100.00;102430.97;5062433;28;20506;-74
2021/11/09 01:08:58;;;;;;;64.93;33.78;;;;;;;2.55;100.00;102432.75;5065992;28;20020;-73
2021/11/09 01:11:23;;;;;;;61.38;33.75;;;;;;;2.55;100.00;102433.66;5062368;28;20032;-76
2021/11/09 01:13:49;;;;;;;59.50;33.70;;;;;;;2.56;100.00;102431.94;5064969;28;20402;-77
2021/11/09 01:16:16;;;;;;;63.50;34.63;;;;;;;2.53;100.00;102423.94;5063679;28;20450;-75
2021/11/09 01:18:45;;;;;;;61.35;32.92;;;;;;;2.57;100.00;102433.75;5063720;28;20476;-77
2021/11/09 01:21:15;;;;;;;64.53;34.42;;;;;;;2.53;100.00;102432.66;5063801;28;20107;-74
2021/11/09 01:23:43;;;;;;;64.63;34.67;;;;;;;2.56;100.00;102425.03;5063706;28;20104;-77
2021/11/09 01:26:09;;;;;;;66.93;35.03;;;;;;;2.54;100.00;102437.06;5063685;28;20122;-79
2021/11/09 01:28:35;;;;;;;62.80;35.53;;;;;;;2.55;100.00;102433.66;5062901;28;20067;-79
2021/11/09 01:31:01;;;;;;;65.80;34.90;;;;;;;2.52;100.00;102423.03;5065309;28;20052;-71
2021/11/09 01:33:27;;;;;;;65.35;34.67;;;;;;;2.53;100.00;102424.81;5061929;28;20379;-78
2021/11/09 01:35:52;;;;;;;61.67;34.92;;;;;;;2.50;100.00;102426.34;5064764;28;20024;-76
2021/11/09 01:38:18;;;;;;;64.05;35.15;;;;;;;2.51;100.00;102425.56;5062732;28;20102;-75
2021/11/09 01:40:44;;;;;;;60.58;34.30;;;;;;;2.50;100.00;102416.81;5063703;28;20028;-79
2021/11/09 01:43:11;;;;;;;66.07;36.15;;;;;;;2.52;100.00;102423.03;5063674;28;20468;-62
2021/11/09 01:45:36;;;;;;;62.92;36.20;;;;;;;2.55;100.00;102423.22;5063202;28;20029;-61
2021/11/09 01:48:03;;;;;;;63.47;36.30;;;;;;;2.48;100.00;102425.38;5064834;28;20384;-63
2021/11/09 01:50:37;;;;;;;64.25;36.53;;;;;;;2.53;100.00;102429.16;5061463;28;20021;-65
2021/11/09 01:53:04;;;;;;;71.60;38.08;;;;;;;2.51;100.00;102420.34;5062164;28;20025;-64
2021/11/09 01:55:30;;;;;;;72.93;37.58;;;;;;;2.51;100.00;102418.63;5065085;28;20103;-62
2021/11/09 01:57:57;;;;;;;72.78;39.85;;;;;;;2.46;100.00;102432.19;5061408;28;20103;-63
2021/11/09 02:00:29;;;;;;;67.57;38.80;;;;;;;2.46;100.00;102424.34;5064421;28;20048;-65
2021/11/09 02:02:56;;;;;;;67.95;38.85;;;;;;;2.49;100.00;102421.94;5061769;28;20493;-62
2021/11/09 02:05:22;;;;;;;80.78;41.08;;;;;;;2.42;100.00;102424.16;5064265;28;20387;-64
2021/11/09 02:07:53;;;;;;;76.28;39.92;;;;;;;2.50;100.00;102435.06;5062253;28;20028;-64
2021/11/09 02:10:23;;;;;;;70.85;40.80;;;;;;;2.51;100.00;102436.00;5063921;28;20036;-64
2021/11/09 02:12:48;;;;;;;71.57;39.33;;;;;;;2.53;100.00;102434.38;5062033;28;20072;-65
2021/11/09 02:15:14;;;;;;;75.22;41.22;;;;;;;2.43;100.00;102441.63;5063061;28;20094;-61
2021/11/09 02:17:42;;;;;;;80.28;41.47;;;;;;;2.49;100.00;102435.91;5063160;28;20111;-63
2021/11/09 02:20:10;;;;;;;73.43;41.67;;;;;;;2.51;100.00;102438.63;5062231;28;20029;-64
2021/11/09 02:22:37;;;;;;;76.22;40.30;;;;;;;2.48;100.00;102441.94;5063568;28;20463;-62
2021/11/09 02:25:05;;;;;;;79.00;39.50;;;;;;;2.41;100.00;102443.22;5061500;28;20127;-62
2021/11/09 02:27:30;;;;;;;74.13;39.75;;;;;;;2.38;100.00;102437.81;5064291;28;20025;-75
2021/11/09 02:29:56;;;;;;;72.72;41.03;;;;;;;2.38;100.00;102452.59;5060938;28;20032;-74
2021/11/09 02:32:21;;;;;;;76.45;41.53;;;;;;;2.40;100.00;102449.28;5064038;28;20103;-72
2021/11/09 02:34:47;;;;;;;72.60;40.25;;;;;;;2.38;100.00;102448.25;5062107;28;20040;-73
2021/11/09 02:37:12;;;;;;;75.03;41.45;;;;;;;2.39;100.00;102444.84;5061709;28;20025;-76
2021/11/09 02:39:38;;;;;;;72.97;40.95;;;;;;;2.36;100.00;102441.13;5063353;28;20036;-79
2021/11/09 02:42:13;;;;;;;70.28;40.30;;;;;;;2.36;100.00;102438.53;5061209;28;20021;-78
2021/11/09 02:44:54;;;;;;;72.00;41.50;;;;;;;2.32;100.00;102429.63;5063130;28;20078;-78
2021/11/09 02:47:22;;;;;;;78.78;41.60;;;;;;;2.29;100.00;102445.09;5063404;28;20037;-75
2021/11/09 02:50:04;;;;;;;74.15;42.17;;;;;;;2.33;100.00;102440.94;5062128;28;20032;-75
2021/11/09 02:52:32;;;;;;;72.53;41.03;;;;;;;2.27;100.00;102441.44;5060985;28;20025;-77
2021/11/09 02:55:04;;;;;;;73.95;40.28;;;;;;;2.25;100.00;102436.13;5064417;28;20025;-78
2021/11/09 02:57:44;;;;;;;71.43;41.65;;;;;;;2.26;100.00;102437.06;5060686;28;20099;-77
2021/11/09 03:00:25;;;;;;;74.50;42.25;;;;;;;2.26;100.00;102437.06;5061903;28;20052;-76
2021/11/09 03:03:00;;;;;;;79.72;42.47;;;;;;;2.25;100.00;102437.84;5061214;28;20037;-78
2021/11/09 03:05:31;;;;;;;85.82;43.10;;;;;;;2.21;100.00;102430.63;5061249;28;20028;-78
2021/11/09 03:10:47;;;;;;;82.10;43.20;;;;;;;2.23;100.00;102429.03;5042740;28;20025;-76
2021/11/09 03:13:12;;;;;;;85.57;43.63;;;;;;;2.24;100.00;102430.81;5024291;28;20048;-73
2021/11/09 03:15:38;;;;;;;79.45;43.72;;;;;;;2.22;100.00;102429.84;5040737;28;20064;-74
2021/11/09 03:18:13;;;;;;;79.85;42.80;;;;;;;2.21;100.00;102434.16;5038863;28;20037;-75
2021/11/09 03:20:45;;;;;;;75.60;42.50;;;;;;;2.18;100.00;102433.06;5040633;28;20033;-77
2021/11/09 03:45:10;;;;;;;86.47;42.38;;;;;;;2.20;100.00;102439.25;5042260;28;20032;-79
2021/11/09 03:47:45;;;;;;;86.68;43.58;;;;;;;2.19;100.00;102430.53;5050052;28;20043;-73
2021/11/09 03:50:13;;;;;;;82.07;43.45;;;;;;;2.18;100.00;102431.34;5065155;28;20028;-77
2021/11/09 03:55:41;;;;;;;85.78;43.90;;;;;;;2.25;100.00;102440.47;5045222;28;20040;-77
2021/11/09 03:58:23;;;;;;;86.22;46.28;;;;;;;2.24;100.00;102439.56;5041536;28;20048;-79
2021/11/09 04:01:07;;;;;;;88.37;44.77;;;;;;;2.21;100.00;102439.38;5043888;28;20077;-77
2021/11/09 04:06:33;;;;;;;91.93;48.88;;;;;;;2.26;100.00;102429.22;4983005;28;20038;-74
2021/11/09 04:09:25;;;;;;;90.82;47.72;;;;;;;2.22;100.00;102432.44;4985657;28;20565;-79
2021/11/09 04:34:00;;;;;;;97.72;50.45;;;;;;;2.15;100.00;102459.84;4901277;29;20040;-66
2021/11/09 04:37:34;;;;;;;97.57;49.78;;;;;;;2.13;100.00;102460.56;4916319;29;20051;-65
2021/11/09 05:08:21;;;;;;;110.07;48.08;;;;;;;2.09;100.00;102476.00;5023720;28;20079;-62
2021/11/09 05:09:37;;;;;;;104.57;50.35;;;;;;;2.08;100.00;102475.91;5023889;28;20041;-65
2021/11/09 05:12:03;;;;;;;102.95;50.92;;;;;;;2.05;100.00;102480.94;5023472;28;20081;-63
2021/11/09 05:14:29;;;;;;;110.82;51.67;;;;;;;2.02;100.00;102471.19;5024155;28;20027;-62
2021/11/09 05:16:55;;;;;;;104.72;50.10;;;;;;;2.04;100.00;102472.22;5020457;28;20041;-64
2021/11/09 05:19:20;;;;;;;110.47;51.03;;;;;;;2.03;100.00;102470.41;5024415;28;20049;-61
2021/11/09 05:21:45;;;;;;;102.28;50.47;;;;;;;2.01;100.00;102474.63;5007663;28;20065;-62
2021/11/09 05:24:11;;;;;;;111.35;50.03;;;;;;;2.03;100.00;102475.59;5021371;28;20037;-62
2021/11/09 05:26:38;;;;;;;110.93;51.75;;;;;;;2.02;100.00;102481.63;5022662;28;20398;-65
2021/11/09 05:29:05;;;;;;;106.93;50.33;;;;;;;1.97;100.00;102483.03;5020488;28;20042;-62
2021/11/09 05:31:30;;;;;;;107.35;49.67;;;;;;;2.00;100.00;102470.19;5023424;28;20107;-62
2021/11/09 05:33:57;;;;;;;112.78;51.15;;;;;;;2.04;100.00;102480.03;5020302;28;20599;-62
2021/11/09 05:36:30;;;;;;;117.07;52.30;;;;;;;2.03;100.00;102478.22;5022900;28;20518;-64
2021/11/09 05:39:08;;;;;;;115.72;53.58;;;;;;;2.04;100.00;102477.44;5060325;28;20440;-62
2021/11/09 05:41:36;;;;;;;109.65;53.10;;;;;;;2.14;100.00;102485.84;5061822;28;20033;-63
2021/11/09 05:44:03;;;;;;;121.13;53.90;;;;;;;2.14;100.00;102475.41;5065321;28;20445;-62
2021/11/09 05:46:28;;;;;;;110.18;54.20;;;;;;;2.12;100.00;102490.06;5062067;28;20044;-62
2021/11/09 05:48:53;;;;;;;115.20;55.03;;;;;;;2.13;100.00;102489.28;5064555;28;20460;-62
2021/11/09 05:51:20;;;;;;;117.55;53.42;;;;;;;2.12;100.00;102490.06;5062779;28;20020;-62
2021/11/09 05:53:46;;;;;;;111.05;53.78;;;;;;;2.11;100.00;102496.09;5063683;28;20025;-63
2021/11/09 05:56:12;;;;;;;114.15;54.28;;;;;;;2.11;100.00;102496.09;5063326;28;20013;-61
2021/11/09 05:58:37;;;;;;;116.25;51.78;;;;;;;2.13;100.00;102494.50;5061152;28;20171;-64
2021/11/09 06:01:03;;;;;;;119.70;53.50;;;;;;;2.09;100.00;102496.88;5064737;28;20468;-64
2021/11/09 06:03:28;;;;;;;115.47;52.75;;;;;;;2.08;100.00;102502.91;5061152;28;20028;-62
2021/11/09 06:05:54;;;;;;;112.97;50.60;;;;;;;2.09;100.00;102502.09;5064727;28;20419;-63
2021/11/09 06:08:21;;;;;;;112.55;51.25;;;;;;;2.12;100.00;102506.63;5062451;28;20379;-63
2021/11/09 06:10:46;;;;;;;115.32;50.35;;;;;;;2.13;100.00;102507.53;5063047;28;20021;-66
2021/11/09 06:13:12;;;;;;;117.25;51.20;;;;;;;2.12;100.00;102506.63;5063430;28;20090;-64
2021/11/09 06:15:38;;;;;;;104.35;48.28;;;;;;;2.11;100.00;102506.50;5061797;28;20017;-63
2021/11/09 06:18:03;;;;;;;100.40;50.08;;;;;;;2.10;100.00;102510.84;5064336;28;20391;-62
2021/11/09 06:20:29;;;;;;;103.72;48.92;;;;;;;2.10;100.00;102508.22;5061378;28;20025;-77
2021/11/09 06:22:54;;;;;;;107.55;49.10;;;;;;;2.09;100.00;102511.63;5064030;28;20453;-79
2021/11/09 06:25:23;;;;;;;101.15;47.17;;;;;;;2.12;100.00;102516.16;5061858;28;20555;-79
2021/11/09 06:27:50;;;;;;;97.63;47.33;;;;;;;2.12;100.00;102516.16;5063573;28;20488;-74
2021/11/09 06:30:15;;;;;;;106.32;48.70;;;;;;;2.08;100.00;102525.47;5065102;28;20051;-74
2021/11/09 06:32:41;;;;;;;106.57;49.00;;;;;;;2.08;100.00;102517.66;5059973;28;20067;-76
2021/11/09 06:35:07;;;;;;;107.20;51.45;;;;;;;2.11;100.00;102515.22;5062271;28;20041;-71
2021/11/09 06:37:33;;;;;;;113.38;50.00;;;;;;;2.08;100.00;102529.00;5061177;28;20032;-73
2021/11/09 06:40:01;;;;;;;110.63;51.05;;;;;;;2.06;100.00;102521.88;5060367;28;20020;-73
2021/11/09 06:42:26;;;;;;;118.20;50.25;;;;;;;2.06;100.00;102529.72;5072782;28;20367;-85
2021/11/09 06:44:52;;;;;;;102.45;50.50;;;;;;;2.07;100.00;102531.53;5070910;28;20029;-80
2021/11/09 06:47:17;;;;;;;109.95;51.10;;;;;;;2.04;100.00;102526.06;5074831;28;20060;-64
2021/11/09 06:49:42;;;;;;;109.60;49.78;;;;;;;2.07;100.00;102532.41;5077295;28;20021;-80
2021/11/09 06:52:08;;;;;;;117.80;52.13;;;;;;;2.07;100.00;102532.41;5071442;28;20021;-80
2021/11/09 06:54:34;;;;;;;120.82;50.47;;;;;;;2.11;100.00;102530.00;5067127;28;20029;-74
2021/11/09 06:56:59;;;;;;;111.53;51.97;;;;;;;2.15;100.00;102535.50;5066526;28;20062;-74
2021/11/09 06:59:25;;;;;;;114.35;51.42;;;;;;;2.09;100.00;102538.63;5071109;28;20033;-74
2021/11/09 07:01:50;;;;;;;117.03;51.05;;;;;;;2.12;100.00;102540.53;5071014;28;20464;-83
2021/11/09 07:04:16;;;;;;;114.85;51.55;;;;;;;2.12;100.00;102524.00;5070874;28;20032;-79
2021/11/09 07:06:42;;;;;;;111.30;50.88;;;;;;;2.15;100.00;102547.66;5070937;28;20516;-75
2021/11/09 07:09:07;;;;;;;113.43;50.60;;;;;;;2.21;100.00;102555.91;5070870;28;20027;-73
2021/11/09 07:11:33;;;;;;;116.68;49.88;;;;;;;2.19;100.00;102558.41;5070772;28;20031;-74
2021/11/09 07:13:58;;;;;;;113.10;50.45;;;;;;;2.24;100.00;102561.31;5070919;28;20020;-82
2021/11/09 07:16:24;;;;;;;112.68;49.10;;;;;;;2.24;100.00;102556.09;5070902;28;20052;-76
2021/11/09 07:18:54;;;;;;;105.82;49.22;;;;;;;2.26;100.00;102560.63;5070116;28;20468;-73
2021/11/09 07:21:20;;;;;;;98.32;47.05;;;;;;;2.30;100.00;102551.28;5069946;28;20487;-79
2021/11/09 07:23:46;;;;;;;102.90;49.45;;;;;;;2.31;100.00;102558.31;5072629;28;20024;-74
2021/11/09 07:26:12;;;;;;;105.03;49.40;;;;;;;2.31;100.00;102570.47;5073401;28;20044;-75
2021/11/09 07:28:38;;;;;;;104.93;48.60;;;;;;;2.32;100.00;102575.78;5074136;28;20044;-83
2021/11/09 07:31:04;;;;;;;111.65;48.35;;;;;;;2.34;100.00;102573.25;5073653;28;20039;-69
2021/11/09 07:33:30;;;;;;;106.22;48.45;;;;;;;2.40;100.00;102571.97;5075063;28;20028;-75
2021/11/09 07:35:56;;;;;;;111.35;49.92;;;;;;;2.41;100.00;102570.25;5074620;28;20356;-74
2021/11/09 07:38:21;;;;;;;99.55;48.42;;;;;;;2.47;100.00;102577.59;5074364;28;20040;-80
2021/11/09 07:40:48;;;;;;;104.15;49.97;;;;;;;2.49;100.00;102575.97;5072324;28;20039;-73
2021/11/09 07:43:15;;;;;;;104.60;49.05;;;;;;;2.55;100.00;102574.66;5071978;28;20025;-79
2021/11/09 07:45:40;;;;;;;101.38;48.13;;;;;;;2.61;100.00;102580.28;5069354;28;20048;-81
2021/11/09 07:48:06;;;;;;;103.72;48.83;;;;;;;2.68;100.00;102576.38;5065183;28;20456;-80
2021/11/09 07:50:32;;;;;;;102.30;49.40;;;;;;;2.78;100.00;102577.84;5069599;28;20051;-77
2021/11/09 07:52:59;;;;;;;100.20;49.50;;;;;;;2.91;100.00;102588.28;5074016;28;20491;-72
2021/11/09 07:55:26;;;;;;;98.97;48.63;;;;;;;3.05;100.00;102585.63;5073868;28;20025;-62
2021/11/09 07:57:56;;;;;;;91.10;45.28;;;;;;;3.20;100.00;102580.44;5074048;28;20029;-63
2021/11/09 08:00:26;;;;;;;84.60;45.05;;;;;;;3.30;100.00;102591.56;5074136;28;20103;-61
2021/11/09 08:05:37;;;;;;;79.30;39.28;;;;;;;3.53;100.00;102593.81;5073967;28;20039;-67
2021/11/09 08:08:11;;;;;;;83.85;41.15;;;;;;;3.68;100.00;102586.88;5071910;28;20032;-66
2021/11/09 08:10:37;;;;;;;72.88;38.28;;;;;;;3.80;100.00;102597.16;5073724;28;20031;-64
2021/11/09 08:13:02;;;;;;;77.18;38.03;;;;;;;3.95;100.00;102587.63;5074409;28;20024;-62
2021/11/09 08:15:27;;;;;;;74.22;36.25;;;;;;;4.06;100.00;102587.34;5073379;28;20020;-62
2021/11/09 08:17:53;;;;;;;64.93;35.00;;;;;;;4.15;100.00;102593.13;5070671;28;20387;-63
2021/11/09 08:20:19;;;;;;;65.18;35.33;;;;;;;4.27;100.00;102595.56;5066233;28;20031;-65
2021/11/09 08:22:45;;;;;;;59.33;32.60;;;;;;;4.36;100.00;102588.25;5063816;28;20027;-79
2021/11/09 08:25:10;;;;;;;56.63;33.35;;;;;;;4.49;100.00;102584.59;5063071;28;20565;-64
2021/11/09 08:27:36;;;;;;;60.38;32.33;;;;;;;4.60;100.00;102583.50;5065731;28;20044;-63
2021/11/09 08:30:02;;;;;;;59.80;31.90;;;;;;;4.70;100.00;102579.66;5064832;28;20052;-73
2021/11/09 08:32:27;;;;;;;57.85;31.73;;;;;;;4.86;100.00;102584.03;5064825;28;20471;-64
2021/11/09 08:34:53;;;;;;;60.28;30.52;;;;;;;5.06;100.00;102585.16;5063530;28;20024;-64
2021/11/09 08:37:20;;;;;;;55.28;29.35;;;;;;;5.23;100.00;102591.31;5064305;28;20074;-63
2021/11/09 08:39:45;;;;;;;47.53;27.98;;;;;;;5.35;100.00;102585.81;5063923;28;20025;-63
2021/11/09 08:47:32;;;;;;;53.92;27.27;;;;;;;5.62;100.00;102598.59;5044903;28;20115;-64
2021/11/09 08:49:58;;;;;;;53.75;28.02;;;;;;;5.65;100.00;102596.13;5036724;28;20038;-63
2021/11/09 08:52:26;;;;;;;53.03;27.35;;;;;;;5.65;100.00;102596.13;5043909;28;20040;-63
2021/11/09 08:54:59;;;;;;;46.70;25.77;;;;;;;5.73;100.00;102600.06;5023887;28;20041;-63
2021/11/09 09:05:48;;;;;;;46.42;24.05;;;;;;;6.25;100.00;102594.00;4992783;28;20037;-79
2021/11/09 09:08:14;;;;;;;44.55;23.17;;;;;;;6.43;100.00;102588.72;4984539;28;20026;-71
2021/11/09 09:10:39;;;;;;;48.92;23.10;;;;;;;6.55;100.00;102591.06;4992595;28;20505;-62
2021/11/09 09:13:04;;;;;;;42.22;20.83;;;;;;;6.72;100.00;102591.88;4992683;28;20038;-79
2021/11/09 09:15:30;;;;;;;45.30;22.02;;;;;;;6.86;100.00;102584.63;4992790;28;20105;-72
2021/11/09 09:17:56;;;;;;;42.40;21.25;;;;;;;7.12;100.00;102588.47;4992404;28;20077;-70
2021/11/09 09:20:26;;;;;;;41.55;20.63;;;;;;;7.32;100.00;102592.94;4992726;28;20034;-76
2021/11/09 09:23:02;;;;;;;38.60;19.10;;;;;;;7.38;99.03;102587.03;4992595;28;20060;-80
2021/11/09 09:31:41;;;;;;;44.03;19.42;;;;;;;7.39;97.42;102594.13;4996314;28;20042;-62
2021/11/09 09:56:05;;;;;;;38.85;16.60;;;;;;;9.20;85.60;102586.69;5028443;28;20034;-61
2021/11/09 09:58:31;;;;;;;35.92;16.33;;;;;;;9.44;84.57;102583.16;5029675;28;20107;-61
2021/11/09 10:00:56;;;;;;;38.95;16.83;;;;;;;9.66;83.83;102595.41;5029340;28;20452;-61
2021/11/09 10:03:36;;;;;;;38.00;15.45;;;;;;;10.35;81.89;102588.97;5029567;28;20030;-61
2021/11/09 10:06:02;;;;;;;36.72;15.60;;;;;;;10.66;76.73;102597.00;5062640;28;20055;-61
2021/11/09 10:08:48;;;;;;;35.47;14.90;;;;;;;10.70;76.17;102591.84;5070419;28;20020;-61
2021/11/09 10:11:38;;;;;;;36.47;15.27;;;;;;;10.39;78.08;102592.63;5071137;28;20099;-62
2021/11/09 10:14:06;;;;;;;36.33;14.45;;;;;;;10.41;76.38;102589.19;5071859;28;20070;-62
2021/11/09 10:16:34;;;;;;;36.80;15.02;;;;;;;10.53;76.73;102593.97;5071319;28;20052;-64
2021/11/09 10:19:01;;;;;;;35.10;15.48;;;;;;;10.71;73.46;102591.00;5071586;28;20556;-63
2021/11/09 10:21:38;;;;;;;35.65;15.13;;;;;;;10.87;74.52;102591.50;5071039;28;20028;-63
2021/11/09 10:24:24;;;;;;;36.15;15.38;;;;;;;10.94;73.85;102588.19;5071345;28;20213;-63
2021/11/09 10:26:50;;;;;;;39.33;14.65;;;;;;;11.75;71.00;102579.06;5066643;28;20033;-63
2021/11/09 10:29:15;;;;;;;36.45;14.05;;;;;;;12.12;66.80;102593.28;5063620;28;20024;-64
2021/11/09 10:31:41;;;;;;;33.55;14.00;;;;;;;12.39;66.15;102576.28;5069429;28;20013;-64
2021/11/09 10:34:22;;;;;;;35.33;13.15;;;;;;;12.90;66.06;102582.75;5070204;28;20034;-63
2021/11/09 10:37:07;;;;;;;33.25;13.05;;;;;;;13.38;62.43;102582.06;5066168;28;20032;-62
2021/11/09 10:39:33;;;;;;;30.70;13.18;;;;;;;13.63;61.05;102581.63;5066971;28;20052;-64
2021/11/09 10:42:07;;;;;;;33.72;12.95;;;;;;;13.88;61.34;102586.56;5071136;28;20124;-63
2021/11/09 10:44:33;;;;;;;30.55;11.90;;;;;;;13.74;58.63;102583.63;5071516;28;20020;-63
2021/11/09 10:47:41;;;;;;;33.85;12.30;;;;;;;13.80;59.87;102596.13;5070997;28;20097;-63
2021/11/09 10:50:22;;;;;;;31.83;13.00;;;;;;;13.85;59.55;102583.84;5069462;28;20102;-63
2021/11/09 10:52:59;;;;;;;32.72;12.82;;;;;;;14.54;59.72;102581.44;5069217;28;20415;-63
2021/11/09 10:55:32;;;;;;;34.53;12.52;;;;;;;14.97;55.94;102581.22;5069784;28;20033;-63
2021/11/09 10:58:13;;;;;;;34.90;12.63;;;;;;;15.19;53.71;102569.09;5071239;28;20032;-63
2021/11/09 11:06:26;;;;;;;34.05;12.85;;;;;;;15.57;53.76;102568.63;5075344;28;20552;-67
2021/11/09 11:09:07;;;;;;;31.30;12.30;;;;;;;15.47;52.72;102566.75;5075257;28;20479;-69
2021/11/09 11:11:37;;;;;;;31.80;12.20;;;;;;;15.99;52.03;102561.97;5064244;28;20033;-61
2021/11/09 11:14:05;;;;;;;31.83;12.63;;;;;;;16.81;49.76;102553.66;5064080;28;20021;-63
2021/11/09 11:16:36;;;;;;;33.53;12.68;;;;;;;16.69;48.76;102563.38;5067619;28;20094;-65
2021/11/09 11:19:04;;;;;;;32.77;11.83;;;;;;;17.07;48.66;102565.38;5067262;28;20041;-62
2021/11/09 11:21:29;;;;;;;31.70;12.20;;;;;;;16.94;48.67;102563.56;5064471;28;20036;-68
2021/11/09 11:23:55;;;;;;;33.30;11.43;;;;;;;17.40;46.35;102566.41;5066904;28;20028;-62
2021/11/09 11:26:21;;;;;;;32.20;11.23;;;;;;;17.42;47.13;102563.75;5065663;28;20127;-66
2021/11/09 11:28:49;;;;;;;31.05;11.25;;;;;;;17.45;46.63;102574.44;5066009;28;20521;-64
2021/11/09 11:31:15;;;;;;;30.02;10.93;;;;;;;17.37;47.36;102577.09;5066660;28;20028;-62
2021/11/09 11:33:41;;;;;;;29.95;10.82;;;;;;;17.66;46.40;102578.06;5065036;28;20367;-63
2021/11/09 11:36:07;;;;;;;30.80;10.77;;;;;;;18.11;44.59;102569.25;5067488;28;20016;-67
2021/11/09 11:38:36;;;;;;;28.98;9.75;;;;;;;18.22;43.98;102566.56;5064146;28;20472;-65
2021/11/09 11:41:03;;;;;;;29.52;10.63;;;;;;;18.43;42.94;102570.09;5064326;28;20362;-65
2021/11/09 11:43:43;;;;;;;32.30;11.25;;;;;;;18.38;45.01;102571.91;5067061;28;20037;-65
2021/11/09 11:46:17;;;;;;;32.47;11.00;;;;;;;18.53;44.57;102573.69;5066216;28;20035;-63
2021/11/09 11:49:09;;;;;;;29.40;10.48;;;;;;;18.31;45.74;102562.09;5074488;28;20113;-63
2021/11/09 11:51:38;;;;;;;29.98;10.52;;;;;;;18.13;42.76;102558.53;5072635;28;20046;-63
2021/11/09 11:54:06;;;;;;;31.25;10.35;;;;;;;18.23;42.72;102556.72;5073892;28;20383;-62
2021/11/09 11:56:38;;;;;;;27.63;10.05;;;;;;;18.53;42.83;102557.59;5072323;28;20020;-63
2021/11/09 11:59:04;;;;;;;31.73;10.55;;;;;;;18.14;43.18;102556.75;5073022;28;20460;-61
2021/11/09 12:01:40;;;;;;;31.80;10.27;;;;;;;18.33;42.66;102545.13;5073768;28;20470;-62
2021/11/09 12:04:10;;;;;;;29.98;10.63;;;;;;;18.30;42.42;102539.78;5071454;28;20036;-62
2021/11/09 12:07:02;;;;;;;29.08;9.70;;;;;;;18.09;43.64;102535.34;5073855;28;20089;-62
2021/11/09 12:09:29;;;;;;;;;;;;;;;18.53;43.94;102541.53;5069195;28;20510;-62
2021/11/09 12:12:21;;;;;;;27.85;9.98;;;;;;;18.14;41.63;102527.31;5072418;28;19955;-62
2021/11/09 12:14:52;;;;;;;29.00;9.10;;;;;;;18.56;42.30;102534.38;5073731;28;20040;-62
2021/11/09 12:17:41;;;;;;;29.35;9.80;;;;;;;19.09;41.13;102535.16;5072409;28;20040;-62
2021/11/09 12:20:08;;;;;;;27.45;9.25;;;;;;;18.81;39.45;102537.00;5071204;28;20024;-62
2021/11/09 12:22:52;;;;;;;29.17;10.07;;;;;;;18.22;42.81;102537.13;5073787;28;20471;-61
2021/11/09 12:25:30;;;;;;;26.23;9.48;;;;;;;18.73;40.08;102531.66;5072680;28;20040;-61
2021/11/09 12:27:56;;;;;;;27.27;8.93;;;;;;;18.12;40.81;102524.63;5072364;28;20479;-62
2021/11/09 12:30:37;;;;;;;30.10;9.50;;;;;;;18.04;42.61;102521.06;5073854;28;20039;-63
2021/11/09 12:33:14;;;;;;;26.85;8.60;;;;;;;18.45;40.92;102523.72;5071670;28;20032;-63
2021/11/09 12:35:47;;;;;;;26.65;9.18;;;;;;;18.80;42.16;102509.31;5070806;28;20108;-63
2021/11/09 12:38:16;;;;;;;28.92;9.10;;;;;;;20.11;38.21;102509.44;5071240;28;20119;-63
2021/11/09 12:40:47;;;;;;;28.13;9.23;;;;;;;19.79;38.88;102503.47;5070191;28;20024;-64
2021/11/09 12:43:12;;;;;;;28.45;9.50;;;;;;;19.44;38.85;102501.88;5064906;28;20081;-62
2021/11/09 12:45:41;;;;;;;28.83;8.82;;;;;;;19.39;38.35;102492.97;5065013;28;20022;-64
2021/11/09 12:48:10;;;;;;;27.02;8.65;;;;;;;19.70;37.90;102490.06;5065598;28;20116;-62
2021/11/09 12:50:37;;;;;;;30.00;9.13;;;;;;;19.77;37.75;102489.13;5061831;28;20120;-64
2021/11/09 12:53:11;;;;;;;27.15;8.23;;;;;;;19.48;38.40;102492.94;5063510;28;20032;-63
2021/11/09 12:55:41;;;;;;;28.00;8.82;;;;;;;19.29;38.94;102499.28;5062699;28;20176;-64
2021/11/09 12:58:44;;;;;;;27.58;8.32;;;;;;;19.57;40.42;102496.44;5063934;28;20383;-63
2021/11/09 13:04:09;;;;;;;27.75;8.40;;;;;;;19.18;38.76;102488.66;5040564;28;20085;-66
2021/11/09 13:09:47;;;;;;;26.60;8.95;;;;;;;20.01;36.21;102487.19;5037223;28;20075;-62
2021/11/09 13:12:14;;;;;;;24.80;8.23;;;;;;;19.92;35.56;102485.47;5040216;28;20120;-61
2021/11/09 13:14:44;;;;;;;26.42;8.38;;;;;;;19.78;37.29;102490.03;5044632;28;20071;-62
2021/11/09 13:17:26;;;;;;;26.55;8.20;;;;;;;20.08;38.21;102488.00;5047232;28;20112;-65
2021/11/09 13:22:49;;;;;;;26.05;7.82;;;;;;;20.79;35.58;102485.44;5045371;28;20507;-61
2021/11/09 13:25:17;;;;;;;27.75;7.68;;;;;;;21.00;34.26;102488.75;5048262;28;20040;-65
2021/11/09 13:27:48;;;;;;;27.20;8.10;;;;;;;19.99;35.90;102483.59;5045964;28;20477;-63
2021/11/09 13:30:19;;;;;;;25.13;8.15;;;;;;;20.12;36.43;102471.84;5045318;28;20040;-63
2021/11/09 13:32:51;;;;;;;26.25;8.00;;;;;;;19.66;36.26;102465.06;5044892;28;20063;-63
2021/11/09 13:35:27;;;;;;;25.75;7.57;;;;;;;19.55;37.87;102468.75;5047644;28;20037;-62
2021/11/09 13:38:11;;;;;;;26.38;7.90;;;;;;;20.54;36.76;102469.59;5049527;28;20064;-62